Terminal Aerodrome Forecast
Issued by NWS Charleston, WV

Current Version | Previous Version | Graphics & Text | Print | Product List | Glossary On
Versions: 1 2 3 4 5 6 7 8 9 10 11 12 13 14 15 16 17 18 19 20 21 22 23 24 25 26 27
000
FTUS41 KRLX 230521
TAFPKB
TAF
KPKB 230521Z 2306/2406 14008KT 4SM SHRA BKN015 OVC035
     FM230900 18004KT P6SM OVC015
     FM231400 22009KT P6SM SHRA OVC030
     FM232200 22012G18KT 3SM SHRA VCTS OVC025CB=

USA.gov is the U.S. government's official web portal to all federal, state and local government web resources and services.